createdAt,value
2018-07-13T00:02:25.772Z,12.30
2018-07-13T00:04:54.226Z,12.40
2018-07-13T00:07:22.939Z,13.07
2018-07-13T00:09:51.343Z,9.50
2018-07-13T00:12:19.852Z,9.80
2018-07-13T00:14:58.747Z,10.57
2018-07-13T00:17:27.262Z,13.03
2018-07-13T00:20:02.376Z,13.27
2018-07-13T00:22:30.812Z,9.30
2018-07-13T00:24:59.465Z,9.60
2018-07-13T00:27:27.877Z,12.40
2018-07-13T00:29:56.460Z,7.47
2018-07-13T00:32:24.891Z,12.63
2018-07-13T00:34:53.302Z,10.60
2018-07-13T00:37:21.697Z,10.83
2018-07-13T00:39:50.109Z,12.20
2018-07-13T00:42:18.608Z,8.07
2018-07-13T00:44:47.029Z,10.40
2018-07-13T00:47:15.463Z,11.43
2018-07-13T00:49:43.895Z,10.90
2018-07-13T00:52:12.272Z,12.60
2018-07-13T00:54:40.815Z,13.83
2018-07-13T00:57:09.344Z,16.07
2018-07-13T00:59:37.746Z,14.53
2018-07-13T01:02:06.289Z,12.90
2018-07-13T01:04:34.707Z,13.20
2018-07-13T01:07:03.140Z,16.03
2018-07-13T01:09:31.595Z,9.90
2018-07-13T01:12:00.039Z,15.63
2018-07-13T01:14:28.439Z,11.73
2018-07-13T01:16:56.888Z,21.33
2018-07-13T01:19:25.340Z,15.40
2018-07-13T01:21:53.779Z,20.80
2018-07-13T01:24:22.181Z,10.67
2018-07-13T01:26:50.610Z,14.07
2018-07-13T01:29:19.095Z,14.93
2018-07-13T01:31:47.529Z,12.80
2018-07-13T01:34:15.924Z,14.13
2018-07-13T01:36:44.371Z,11.93
2018-07-13T01:39:13.642Z,17.27
2018-07-13T01:41:42.336Z,20.27
2018-07-13T01:44:10.452Z,13.33
2018-07-13T01:46:38.879Z,17.60
2018-07-13T01:49:07.376Z,19.03
2018-07-13T01:51:35.843Z,21.30
2018-07-13T01:54:04.361Z,21.57
2018-07-13T01:56:32.791Z,19.33
2018-07-13T01:59:01.465Z,18.83
2018-07-13T02:01:29.952Z,13.57
2018-07-13T02:03:58.363Z,15.40
2018-07-13T02:06:26.774Z,16.40
2018-07-13T02:08:55.176Z,19.37
2018-07-13T02:11:23.722Z,22.33
2018-07-13T02:13:52.182Z,14.50
2018-07-13T02:16:20.598Z,15.97
2018-07-13T02:18:49.481Z,15.10
2018-07-13T02:21:17.920Z,19.13
2018-07-13T02:23:46.304Z,24.87
2018-07-13T02:26:14.721Z,13.47
2018-07-13T02:28:43.095Z,23.30
2018-07-13T02:31:11.537Z,18.00
2018-07-13T02:33:39.945Z,21.60
2018-07-13T02:36:08.364Z,16.87
2018-07-13T02:38:36.784Z,21.20
2018-07-13T02:41:05.195Z,16.10
2018-07-13T02:43:33.895Z,20.40
2018-07-13T02:46:02.376Z,45.97
2018-07-13T02:48:30.821Z,15.77
2018-07-13T02:50:59.303Z,18.83
2018-07-13T02:53:27.716Z,18.70
2018-07-13T02:55:56.124Z,13.37
2018-07-13T02:58:24.579Z,18.40
2018-07-13T03:00:53.009Z,17.43
2018-07-13T03:03:21.409Z,18.67
2018-07-13T03:05:49.917Z,14.30
2018-07-13T03:08:22.271Z,14.20
2018-07-13T03:10:50.713Z,15.90
2018-07-13T03:13:19.100Z,11.67
2018-07-13T03:15:47.529Z,14.67
2018-07-13T03:18:15.975Z,16.93
2018-07-13T03:20:44.363Z,17.47
2018-07-13T03:23:12.756Z,15.40
2018-07-13T03:25:41.172Z,22.87
2018-07-13T03:28:09.571Z,19.90
2018-07-13T03:30:37.988Z,12.77
2018-07-13T03:33:06.545Z,17.43
2018-07-13T03:35:35.040Z,15.20
2018-07-13T03:38:03.493Z,20.20
2018-07-13T03:40:32.000Z,18.83
2018-07-13T03:43:00.416Z,23.53
2018-07-13T03:45:29.059Z,19.90
2018-07-13T03:47:57.457Z,19.67
2018-07-13T03:50:25.860Z,17.10
2018-07-13T03:52:54.459Z,23.07
2018-07-13T03:55:22.928Z,20.87
2018-07-13T03:57:51.369Z,13.83
2018-07-13T04:00:19.522Z,17.27
2018-07-13T04:02:48.230Z,18.83
2018-07-13T04:05:16.744Z,19.90
2018-07-13T04:07:45.251Z,13.33
2018-07-13T04:10:13.743Z,17.67
2018-07-13T04:12:42.218Z,13.67
2018-07-13T04:15:10.633Z,14.47
2018-07-13T04:17:39.151Z,15.03
2018-07-13T04:20:07.586Z,16.33
2018-07-13T04:22:36.153Z,13.93
2018-07-13T04:25:04.804Z,16.40
2018-07-13T04:27:34.624Z,23.60
2018-07-13T04:30:02.756Z,16.33
2018-07-13T04:32:31.276Z,17.37
2018-07-13T04:34:59.667Z,15.30
2018-07-13T04:37:28.224Z,15.20
2018-07-13T04:39:56.700Z,15.20
2018-07-13T04:42:25.202Z,12.80
2018-07-13T04:44:53.625Z,17.93
2018-07-13T04:47:22.212Z,19.23
2018-07-13T04:49:53.045Z,18.00
2018-07-13T04:52:19.686Z,16.67
2018-07-13T04:54:48.292Z,17.90
2018-07-13T04:57:16.923Z,14.73
2018-07-13T04:59:45.549Z,20.23
2018-07-13T05:02:14.329Z,21.17
2018-07-13T05:04:42.992Z,16.10
2018-07-13T05:07:11.594Z,20.23
2018-07-13T05:09:40.129Z,18.70
2018-07-13T05:12:08.736Z,16.70
2018-07-13T05:14:37.223Z,25.83
2018-07-13T05:17:05.759Z,13.90
2018-07-13T05:19:34.288Z,20.93
2018-07-13T05:22:03.006Z,16.10
2018-07-13T05:24:31.870Z,11.73
2018-07-13T05:27:00.337Z,12.40
2018-07-13T05:29:28.899Z,13.60
2018-07-13T05:31:57.438Z,13.23
2018-07-13T05:34:26.122Z,11.40
2018-07-13T05:36:54.620Z,10.60
2018-07-13T05:39:23.158Z,16.37
2018-07-13T05:41:51.722Z,11.37
2018-07-13T05:44:20.512Z,11.33
2018-07-13T05:46:49.068Z,16.87
2018-07-13T05:49:17.809Z,13.97
2018-07-13T05:51:46.380Z,17.20
2018-07-13T05:54:15.209Z,10.10
2018-07-13T05:56:43.666Z,11.40
2018-07-13T05:59:12.163Z,7.70
2018-07-13T06:01:40.635Z,13.53
2018-07-13T06:04:09.335Z,9.00
2018-07-13T06:06:37.824Z,8.63
2018-07-13T06:09:09.054Z,14.47
2018-07-13T06:11:37.784Z,12.03
2018-07-13T06:14:06.561Z,8.77
2018-07-13T06:16:35.353Z,9.90
2018-07-13T06:19:03.802Z,11.60
2018-07-13T06:21:32.206Z,9.27
2018-07-13T06:24:01.188Z,7.50
2018-07-13T06:26:29.586Z,8.20
2018-07-13T06:28:58.029Z,7.83
2018-07-13T06:31:26.551Z,10.17
2018-07-13T06:33:55.047Z,10.07
2018-07-13T06:36:23.522Z,8.07
2018-07-13T06:38:51.975Z,5.42
2018-07-13T06:41:20.445Z,7.08
2018-07-13T06:43:49.126Z,6.25
2018-07-13T06:46:17.557Z,9.38
2018-07-13T06:48:45.954Z,7.67
2018-07-13T06:51:14.448Z,6.53
2018-07-13T06:53:42.973Z,8.13
2018-07-13T06:56:11.417Z,7.92
2018-07-13T06:58:51.064Z,8.90
2018-07-13T07:01:19.576Z,5.37
2018-07-13T07:04:18.648Z,5.50
2018-07-13T07:06:47.169Z,5.85
2018-07-13T07:09:16.033Z,7.00
2018-07-13T07:11:55.839Z,3.58
2018-07-13T07:14:24.504Z,7.22
2018-07-13T07:16:52.973Z,3.42
2018-07-13T07:19:21.468Z,4.17
2018-07-13T07:21:49.887Z,3.65
2018-07-13T07:24:19.125Z,5.03
2018-07-13T07:26:47.524Z,3.05
2018-07-13T07:29:16.026Z,3.12
2018-07-13T07:31:44.469Z,3.92
2018-07-13T07:34:12.857Z,4.53
2018-07-13T07:36:41.272Z,2.20
2018-07-13T07:39:11.398Z,3.77
2018-07-13T07:41:39.938Z,3.70
2018-07-13T07:44:08.371Z,3.60
2018-07-13T07:46:37.100Z,6.25
2018-07-13T07:49:05.543Z,5.60
2018-07-13T07:51:34.219Z,5.10
2018-07-13T07:54:02.694Z,6.50
2018-07-13T07:56:31.165Z,6.20
2018-07-13T07:58:59.762Z,5.55
2018-07-13T08:01:28.211Z,4.85
2018-07-13T08:03:56.567Z,6.90
2018-07-13T08:06:25.102Z,10.05
2018-07-13T08:08:53.571Z,9.45
2018-07-13T08:11:22.030Z,8.65
2018-07-13T08:13:51.119Z,7.33
2018-07-13T08:16:19.448Z,4.90
2018-07-13T08:18:47.844Z,7.17
2018-07-13T08:21:16.343Z,12.58
2018-07-13T08:23:45.297Z,7.22
2018-07-13T08:26:14.105Z,5.22
2018-07-13T08:28:42.828Z,9.40
2018-07-13T08:31:11.285Z,3.85
2018-07-13T08:33:39.690Z,5.37
2018-07-13T08:36:08.187Z,3.87
2018-07-13T08:38:36.626Z,4.78
2018-07-13T08:41:05.132Z,4.85
2018-07-13T08:43:33.592Z,3.05
2018-07-13T08:46:02.109Z,3.75
2018-07-13T08:48:30.580Z,3.83
2018-07-13T08:50:59.077Z,3.83
2018-07-13T08:53:27.560Z,3.50
2018-07-13T08:55:56.071Z,5.92
2018-07-13T08:58:24.574Z,5.62
2018-07-13T09:00:53.144Z,1.52
2018-07-13T09:03:21.591Z,3.02
2018-07-13T09:05:50.123Z,1.87
2018-07-13T09:08:18.717Z,2.27
2018-07-13T09:10:47.338Z,1.20
2018-07-13T09:13:15.913Z,1.40
2018-07-13T09:15:44.543Z,1.20
2018-07-13T09:18:13.081Z,2.22
2018-07-13T09:20:41.497Z,1.60
2018-07-13T09:23:09.943Z,1.67
2018-07-13T09:25:38.551Z,3.15
2018-07-13T09:28:07.047Z,1.60
2018-07-13T09:30:35.505Z,4.78
2018-07-13T09:33:04.072Z,2.58
2018-07-13T09:35:32.560Z,1.25
2018-07-13T09:38:01.063Z,2.25
2018-07-13T09:40:29.545Z,4.97
2018-07-13T09:42:59.386Z,1.40
2018-07-13T09:45:27.902Z,7.17
2018-07-13T09:47:56.426Z,3.20
2018-07-13T09:50:24.928Z,2.62
2018-07-13T09:52:53.416Z,4.20
2018-07-13T09:55:21.959Z,6.03
2018-07-13T09:57:50.607Z,5.87
2018-07-13T10:00:18.983Z,2.43
2018-07-13T10:02:47.186Z,4.23
2018-07-13T10:05:15.674Z,6.73
2018-07-13T10:07:44.129Z,2.73
2018-07-13T10:10:12.716Z,4.50
2018-07-13T10:12:41.191Z,3.70
2018-07-13T10:15:09.953Z,4.60
2018-07-13T10:17:38.448Z,7.17
2018-07-13T10:20:06.908Z,5.10
2018-07-13T10:22:35.807Z,6.43
2018-07-13T10:25:04.946Z,6.47
2018-07-13T10:27:35.198Z,7.57
2018-07-13T10:30:04.873Z,6.07
2018-07-13T10:32:34.816Z,7.20
2018-07-13T10:35:05.216Z,6.37
2018-07-13T10:37:33.815Z,13.50
2018-07-13T10:40:02.296Z,6.90
2018-07-13T10:42:30.783Z,3.77
2018-07-13T10:44:59.286Z,6.77
2018-07-13T10:47:27.820Z,5.97
2018-07-13T10:49:56.293Z,10.40
2018-07-13T10:52:24.823Z,7.40
2018-07-13T10:54:53.267Z,5.80
2018-07-13T10:57:21.995Z,4.27
2018-07-13T10:59:50.422Z,5.07
2018-07-13T11:02:18.889Z,4.70
2018-07-13T11:04:47.296Z,4.30
2018-07-13T11:07:15.759Z,3.97
2018-07-13T11:09:44.143Z,9.90
2018-07-13T11:12:12.593Z,3.93
2018-07-13T11:14:41.054Z,5.70
2018-07-13T11:17:09.531Z,7.40
2018-07-13T11:19:37.995Z,7.93
2018-07-13T11:22:06.383Z,6.33
2018-07-13T11:24:34.840Z,5.67
2018-07-13T11:27:03.292Z,6.37
2018-07-13T11:29:31.768Z,8.43
2018-07-13T11:32:00.159Z,4.53
2018-07-13T11:34:28.580Z,6.57
2018-07-13T11:36:57.072Z,9.73
2018-07-13T11:39:25.425Z,5.93
2018-07-13T11:41:53.842Z,10.07
2018-07-13T11:44:22.287Z,11.60
2018-07-13T11:46:50.927Z,8.83
2018-07-13T11:49:19.430Z,7.60
2018-07-13T11:51:47.920Z,5.00
2018-07-13T11:54:16.448Z,6.47
2018-07-13T11:56:44.936Z,11.20
2018-07-13T11:59:13.379Z,7.13
2018-07-13T12:01:41.808Z,7.03
2018-07-13T12:04:10.251Z,9.60
2018-07-13T12:06:38.660Z,9.27
2018-07-13T12:09:07.649Z,8.23
2018-07-13T12:11:36.058Z,5.83
2018-07-13T12:14:04.543Z,6.90
2018-07-13T12:16:33.012Z,4.70
2018-07-13T12:19:01.385Z,8.80
2018-07-13T12:21:29.779Z,6.70
2018-07-13T12:23:58.260Z,6.83
2018-07-13T12:26:26.659Z,8.10
2018-07-13T12:28:55.152Z,10.47
2018-07-13T12:31:23.745Z,7.07
2018-07-13T12:33:52.486Z,5.77
2018-07-13T12:36:20.905Z,10.00
2018-07-13T12:38:49.334Z,4.27
2018-07-13T12:41:17.996Z,9.87
2018-07-13T12:43:46.544Z,7.20
2018-07-13T12:46:14.979Z,5.70
2018-07-13T12:48:43.396Z,4.20
2018-07-13T12:51:11.887Z,4.30
2018-07-13T12:53:40.368Z,4.83
2018-07-13T12:56:08.973Z,10.27
2018-07-13T12:58:37.384Z,5.53
2018-07-13T13:03:40.690Z,5.53
2018-07-13T13:06:09.084Z,7.23
2018-07-13T13:08:37.480Z,9.17
2018-07-13T13:11:06.192Z,5.70
2018-07-13T13:13:34.878Z,7.00
2018-07-13T13:16:03.347Z,6.47
2018-07-13T13:18:31.796Z,5.90
2018-07-13T13:21:00.237Z,7.03
2018-07-13T13:23:28.704Z,4.90
2018-07-13T13:25:57.132Z,4.50
2018-07-13T13:28:25.607Z,6.10
2018-07-13T13:30:54.028Z,6.13
2018-07-13T13:33:22.432Z,7.43
2018-07-13T13:35:51.071Z,4.77
2018-07-13T13:38:19.616Z,6.73
2018-07-13T13:40:48.151Z,6.30
2018-07-13T13:43:16.733Z,5.73
2018-07-13T13:45:45.183Z,10.60
2018-07-13T13:48:13.592Z,11.10
2018-07-13T13:50:42.346Z,6.57
2018-07-13T13:53:10.784Z,3.70
2018-07-13T13:55:39.339Z,5.80
2018-07-13T13:58:07.781Z,3.90
2018-07-13T14:00:36.591Z,3.97
2018-07-13T14:03:05.066Z,4.43
2018-07-13T14:05:33.792Z,6.57
2018-07-13T14:08:02.151Z,4.77
2018-07-13T14:10:30.606Z,7.33
2018-07-13T14:12:59.078Z,3.87
2018-07-13T14:15:27.616Z,4.07
2018-07-13T14:17:56.212Z,4.70
2018-07-13T14:20:24.766Z,3.43
2018-07-13T14:22:53.243Z,4.50
2018-07-13T14:25:21.679Z,4.83
2018-07-13T14:27:50.059Z,4.07
2018-07-13T14:30:18.504Z,5.23
2018-07-13T14:32:46.884Z,5.23
2018-07-13T14:35:15.316Z,3.57
2018-07-13T14:37:43.805Z,7.00
2018-07-13T14:40:12.257Z,3.73
2018-07-13T14:42:40.719Z,4.53
2018-07-13T14:45:09.210Z,3.20
2018-07-13T14:47:37.606Z,3.73
2018-07-13T14:50:06.075Z,8.40
2018-07-13T14:52:34.546Z,4.07
2018-07-13T14:55:03.008Z,3.10
2018-07-13T14:57:31.482Z,4.80
2018-07-13T14:59:59.892Z,6.97
2018-07-13T15:02:28.360Z,4.30
2018-07-13T15:04:56.882Z,6.50
2018-07-13T15:07:25.332Z,6.13
2018-07-13T15:09:53.748Z,6.87
2018-07-13T15:12:22.241Z,4.90
2018-07-13T15:14:50.723Z,4.93
2018-07-13T15:17:19.165Z,6.70
2018-07-13T15:19:47.707Z,5.57
2018-07-13T15:22:16.147Z,7.43
2018-07-13T15:24:44.556Z,4.77
2018-07-13T15:27:13.031Z,5.60
2018-07-13T15:29:41.567Z,4.90
2018-07-13T15:32:10.179Z,5.93
2018-07-13T15:34:38.513Z,3.77
2018-07-13T15:37:06.968Z,5.43
2018-07-13T15:39:35.427Z,4.10
2018-07-13T15:42:03.969Z,7.30
2018-07-13T15:44:32.363Z,4.40
2018-07-13T15:47:00.751Z,4.00
2018-07-13T15:49:29.201Z,4.20
2018-07-13T15:51:57.853Z,6.10
2018-07-13T15:54:26.411Z,5.27
2018-07-13T15:56:54.895Z,3.93
2018-07-13T15:59:23.348Z,6.77
2018-07-13T16:01:51.930Z,7.07
2018-07-13T16:04:20.481Z,2.87
2018-07-13T16:06:49.083Z,3.90
2018-07-13T16:09:17.736Z,7.10
2018-07-13T16:11:46.335Z,4.73
2018-07-13T16:14:14.791Z,7.57
2018-07-13T16:16:42.915Z,3.33
2018-07-13T16:19:11.319Z,5.83
2018-07-13T16:21:39.881Z,4.17
2018-07-13T16:24:08.414Z,4.50
2018-07-13T16:26:36.828Z,6.17
2018-07-13T16:29:05.246Z,5.20
2018-07-13T16:31:33.775Z,4.37
2018-07-13T16:34:02.272Z,3.80
2018-07-13T16:36:30.626Z,5.70
2018-07-13T16:38:59.043Z,6.07
2018-07-13T16:41:27.579Z,2.80
2018-07-13T16:43:56.023Z,4.40
2018-07-13T16:46:25.234Z,8.30
2018-07-13T16:48:53.648Z,3.17
2018-07-13T16:51:22.041Z,9.63
2018-07-13T16:53:50.508Z,3.57
2018-07-13T16:56:18.981Z,4.33
2018-07-13T16:58:47.368Z,3.90
2018-07-13T17:01:15.828Z,4.10
2018-07-13T17:03:44.252Z,6.60
2018-07-13T17:06:12.774Z,5.37
2018-07-13T17:08:41.424Z,4.50
2018-07-13T17:11:09.894Z,6.67
2018-07-13T17:13:38.484Z,3.80
2018-07-13T17:16:06.938Z,3.13
2018-07-13T17:18:35.448Z,4.10
2018-07-13T17:21:03.924Z,7.23
2018-07-13T17:23:32.376Z,4.10
2018-07-13T17:26:01.164Z,10.70
2018-07-13T17:28:29.585Z,4.60
2018-07-13T17:30:58.565Z,6.00
2018-07-13T17:33:27.052Z,7.80
2018-07-13T17:35:55.705Z,7.30
2018-07-13T17:38:24.198Z,5.83
2018-07-13T17:40:52.851Z,8.20
2018-07-13T17:43:21.271Z,4.87
2018-07-13T17:45:49.754Z,4.07
2018-07-13T17:48:18.499Z,3.90
2018-07-13T17:50:46.949Z,5.57
2018-07-13T17:53:15.457Z,6.97
2018-07-13T17:55:44.039Z,6.83
2018-07-13T17:58:12.493Z,6.20
2018-07-13T18:00:41.072Z,4.43
2018-07-13T18:03:09.504Z,3.47
2018-07-13T18:05:38.012Z,7.17
2018-07-13T18:08:06.779Z,3.83
2018-07-13T18:10:35.222Z,6.93
2018-07-13T18:13:03.887Z,4.37
2018-07-13T18:15:32.334Z,4.13
2018-07-13T18:18:00.770Z,9.57
2018-07-13T18:20:29.212Z,6.87
2018-07-13T18:22:57.642Z,5.80
2018-07-13T18:25:26.019Z,6.57
2018-07-13T18:27:54.481Z,7.27
2018-07-13T18:30:22.903Z,7.70
2018-07-13T18:32:51.352Z,9.47
2018-07-13T18:35:19.744Z,6.57
2018-07-13T18:37:48.231Z,4.30
2018-07-13T18:40:16.673Z,3.83
2018-07-13T18:42:45.162Z,3.77
2018-07-13T18:45:13.626Z,6.67
2018-07-13T18:47:42.014Z,5.63
2018-07-13T18:50:10.479Z,3.60
2018-07-13T18:52:39.040Z,6.30
2018-07-13T18:55:07.514Z,3.17
2018-07-13T18:57:35.634Z,6.87
2018-07-13T19:00:04.150Z,3.93
2018-07-13T19:02:32.544Z,7.30
2018-07-13T19:05:01.010Z,5.93
2018-07-13T19:07:29.517Z,4.23
2018-07-13T19:09:57.916Z,5.33
2018-07-13T19:12:26.351Z,6.23
2018-07-13T19:14:54.784Z,5.60
2018-07-13T19:17:23.169Z,5.80
2018-07-13T19:19:51.611Z,5.50
2018-07-13T19:22:20.018Z,7.70
2018-07-13T19:24:48.404Z,5.57
2018-07-13T19:27:16.776Z,6.57
2018-07-13T19:29:45.180Z,7.47
2018-07-13T19:32:13.607Z,5.57
2018-07-13T19:34:42.032Z,5.90
2018-07-13T19:37:10.451Z,4.80
2018-07-13T19:39:38.840Z,8.27
2018-07-13T19:42:07.275Z,6.90
2018-07-13T19:44:35.711Z,5.17
2018-07-13T19:47:04.125Z,5.00
2018-07-13T19:49:32.667Z,8.33
2018-07-13T19:52:01.114Z,9.57
2018-07-13T19:54:29.578Z,7.20
2018-07-13T19:56:58.245Z,10.80
2018-07-13T19:59:26.635Z,6.80
2018-07-13T20:01:55.026Z,6.13
2018-07-13T20:04:23.433Z,4.87
2018-07-13T20:06:51.781Z,6.30
2018-07-13T20:09:20.168Z,6.37
2018-07-13T20:11:48.533Z,6.77
2018-07-13T20:14:16.908Z,5.93
2018-07-13T20:16:45.413Z,7.20
2018-07-13T20:19:13.795Z,8.70
2018-07-13T20:21:42.223Z,8.77
2018-07-13T20:24:10.620Z,14.93
2018-07-13T20:26:39.012Z,5.67
2018-07-13T20:29:07.599Z,8.33
2018-07-13T20:31:36.128Z,5.83
2018-07-13T20:34:04.740Z,6.90
2018-07-13T20:36:33.123Z,9.03
2018-07-13T20:39:01.555Z,7.30
2018-07-13T20:41:29.942Z,11.70
2018-07-13T20:43:58.316Z,6.13
2018-07-13T20:46:26.715Z,13.17
2018-07-13T20:48:55.107Z,8.83
2018-07-13T20:51:23.498Z,8.63
2018-07-13T20:53:51.875Z,6.70
2018-07-13T20:56:20.311Z,7.00
2018-07-13T20:58:49.222Z,14.27
2018-07-13T21:01:17.628Z,10.13
2018-07-13T21:03:46.066Z,7.00
2018-07-13T21:06:15.327Z,10.50
2018-07-13T21:08:43.720Z,9.80
2018-07-13T21:11:12.094Z,10.30
2018-07-13T21:13:40.615Z,8.50
2018-07-13T21:16:09.038Z,7.13
2018-07-13T21:18:37.451Z,11.23
2018-07-13T21:21:05.940Z,9.40
2018-07-13T21:23:34.353Z,10.03
2018-07-13T21:26:02.829Z,12.67
2018-07-13T21:28:31.294Z,8.53
2018-07-13T21:30:59.811Z,6.57
2018-07-13T21:33:28.200Z,12.50
2018-07-13T21:35:56.682Z,7.67
2018-07-13T21:38:25.048Z,8.90
2018-07-13T21:40:56.479Z,9.90
2018-07-13T21:43:24.852Z,8.00
2018-07-13T21:45:53.253Z,6.60
2018-07-13T21:48:21.663Z,7.10
2018-07-13T21:50:50.097Z,11.03
2018-07-13T21:53:18.491Z,11.13
2018-07-13T21:55:47.059Z,8.20
2018-07-13T21:58:15.447Z,10.50
2018-07-13T22:00:44.088Z,10.63
2018-07-13T22:03:12.476Z,8.60
2018-07-13T22:05:40.879Z,9.70
2018-07-13T22:08:09.368Z,7.63
2018-07-13T22:10:37.783Z,16.37
2018-07-13T22:13:06.304Z,8.80
2018-07-13T22:15:34.704Z,8.67
2018-07-13T22:18:03.235Z,7.53
2018-07-13T22:20:31.651Z,9.07
2018-07-13T22:23:00.419Z,8.40
2018-07-13T22:25:28.844Z,9.07
2018-07-13T22:27:57.252Z,7.63
2018-07-13T22:30:25.684Z,12.50
2018-07-13T22:32:54.100Z,7.10
2018-07-13T22:35:22.637Z,9.10
2018-07-13T22:37:51.023Z,11.57
2018-07-13T22:40:19.498Z,7.93
2018-07-13T22:42:47.850Z,12.13
2018-07-13T22:45:16.236Z,11.60
2018-07-13T22:47:44.624Z,9.20
2018-07-13T22:50:13.105Z,10.77
2018-07-13T22:52:41.508Z,8.27
2018-07-13T22:55:10.026Z,8.43
2018-07-13T22:57:38.432Z,8.47
2018-07-13T23:00:07.480Z,9.43
2018-07-13T23:02:35.875Z,11.63
2018-07-13T23:05:04.321Z,8.30
2018-07-13T23:07:32.779Z,12.90
2018-07-13T23:10:01.217Z,8.90
2018-07-13T23:12:29.684Z,7.67
2018-07-13T23:14:58.072Z,11.03
2018-07-13T23:17:26.508Z,10.57
2018-07-13T23:19:54.910Z,9.50
2018-07-13T23:22:23.320Z,7.07
2018-07-13T23:24:51.740Z,9.37
2018-07-13T23:27:19.894Z,8.57
2018-07-13T23:29:54.951Z,14.17
2018-07-13T23:32:23.438Z,9.43
2018-07-13T23:34:51.897Z,11.47
2018-07-13T23:37:20.324Z,8.70
2018-07-13T23:39:48.778Z,15.33
2018-07-13T23:42:17.394Z,8.30
2018-07-13T23:44:45.758Z,13.40
2018-07-13T23:47:14.233Z,17.13
2018-07-13T23:49:42.628Z,13.63
2018-07-13T23:52:11.038Z,10.00
2018-07-13T23:54:39.430Z,8.90
2018-07-13T23:57:07.905Z,9.40
2018-07-13T23:59:36.339Z,9.90
